Forside
METAR-TAF:

METAR-TAF

Lufthavne :

Vojens Lufthavn

Vojens, Danmark

Breddekreds: 55-14N, længdekreds: 009-16E, højde: 43 m

Aktuelle vejr

Denne rapport blev lavet for 27 minutter siden, kl. 15:20 UTC
Vind 13 kt fra vest
Temperatur 15°C
Fugtighed 59%
Tryk 1022 hPa
Sigt 10 km eller mere
Nogle få skyer i en højde af 4200 ft

METAR: EKSP 081520Z 28013KT 9999 FEW042 15/07 Q1022

Tid: 17:47 (15:47 UTC)

Vejrudsigter

Denne rapport blev lavet for 1 time og 38 minutter siden, kl. 14:09 UTC
Foreløbig gælder fra 08 på 15 UTC til 09 på 15 UTC
Vind 8 kt fra østsydøst
Sigt 10 km eller mere
Spredte skyer i en højde af 5000 ft
ændring
fra 08 på 15 UTC til 08 på 16 UTC
Vind 8 kt fra vest
ændring
fra 09 på 01 UTC til 09 på 04 UTC
Vind 12 kt fra vestnordvest
Midlertidig
fra 09 på 03 UTC til 09 på 06 UTC
Sigt: 6000 m
Brudte skyer i en højde af 800 ft

TAF: EKSP 081409Z 0815/0915 11008KT 9999 SCT050 BECMG 0815/0816 28008KT BECMG 0901/0904 30012KT TEMPO 0903/0906 6000 BKN008

Vejrobservationer og prognoser fra mere end 4000 lufthavne (METAR og TAF).

De gule og røde prikker repræsenterer de meteorologiske stationer.

Flyt musen over at se navnet på stationen.

Så klik over at se vejr observationer og prognoser.

At skifte det kort: Klik på de grønne knapper med et sort kors for at zoome ind; på den grønne knap med en bindestreg for at zoome ud; eller på de grønne pile for tilstødende kort.


METAR-TAF: